Terminal Aerodrome Forecast
Issued by NWS

Home | Current Version | Previous Version | Text Only | Print | Product List | Glossary On
Versions: 1 2 3 4 5 6 7 8 9 10 11 12 13
000
FTUS44 KJAN 021120
TAFHKS
TAF
KHKS 021120Z 0212/0312 VRB03KT 6SM BR FEW100 OVC200
     FM021430 34005KT P6SM SCT060 SCT120 BKN250
     FM021900 VRB04KT P6SM VCTS SCT050CB BKN100
     FM030200 VRB03KT P6SM SCT100 BKN250=

USA.gov is the U.S. government's official web portal to all federal, state and local government web resources and services.